sensor_id;sensor_type;location;lat;lon;timestamp;P1;durP1;ratioP1;P2;durP2;ratioP2
8964;SDS011;4517;49.020;12.066;2023-02-11T00:01:45;86.57;;;37.97;;
8964;SDS011;4517;49.020;12.066;2023-02-11T00:04:10;85.90;;;36.30;;
8964;SDS011;4517;49.020;12.066;2023-02-11T00:06:36;92.30;;;39.40;;
8964;SDS011;4517;49.020;12.066;2023-02-11T00:09:02;75.43;;;38.43;;
8964;SDS011;4517;49.020;12.066;2023-02-11T00:11:28;79.67;;;36.80;;
8964;SDS011;4517;49.020;12.066;2023-02-11T00:13:54;84.23;;;35.30;;
8964;SDS011;4517;49.020;12.066;2023-02-11T00:16:24;84.17;;;35.27;;
8964;SDS011;4517;49.020;12.066;2023-02-11T00:18:50;82.17;;;35.97;;
8964;SDS011;4517;49.020;12.066;2023-02-11T00:21:19;102.53;;;38.77;;
8964;SDS011;4517;49.020;12.066;2023-02-11T00:23:46;75.90;;;35.70;;
8964;SDS011;4517;49.020;12.066;2023-02-11T00:26:13;82.77;;;35.40;;
8964;SDS011;4517;49.020;12.066;2023-02-11T00:28:40;82.47;;;35.80;;
8964;SDS011;4517;49.020;12.066;2023-02-11T00:31:06;81.37;;;33.90;;
8964;SDS011;4517;49.020;12.066;2023-02-11T00:33:31;73.87;;;34.47;;
8964;SDS011;4517;49.020;12.066;2023-02-11T00:35:57;80.50;;;35.43;;
8964;SDS011;4517;49.020;12.066;2023-02-11T00:38:23;83.03;;;35.30;;
8964;SDS011;4517;49.020;12.066;2023-02-11T00:40:48;82.30;;;34.87;;
8964;SDS011;4517;49.020;12.066;2023-02-11T00:43:14;82.67;;;35.80;;
8964;SDS011;4517;49.020;12.066;2023-02-11T00:45:39;67.80;;;35.73;;
8964;SDS011;4517;49.020;12.066;2023-02-11T00:48:05;86.43;;;35.40;;
8964;SDS011;4517;49.020;12.066;2023-02-11T00:50:30;74.00;;;34.37;;
8964;SDS011;4517;49.020;12.066;2023-02-11T00:52:56;79.67;;;35.20;;
8964;SDS011;4517;49.020;12.066;2023-02-11T00:55:22;74.23;;;32.73;;
8964;SDS011;4517;49.020;12.066;2023-02-11T00:57:47;78.50;;;34.20;;
8964;SDS011;4517;49.020;12.066;2023-02-11T01:00:13;78.20;;;33.70;;
8964;SDS011;4517;49.020;12.066;2023-02-11T01:02:39;67.63;;;32.20;;
8964;SDS011;4517;49.020;12.066;2023-02-11T01:05:05;84.47;;;35.10;;
8964;SDS011;4517;49.020;12.066;2023-02-11T01:07:31;69.97;;;33.87;;
8964;SDS011;4517;49.020;12.066;2023-02-11T01:09:56;80.97;;;34.20;;
8964;SDS011;4517;49.020;12.066;2023-02-11T01:12:22;65.47;;;33.13;;
8964;SDS011;4517;49.020;12.066;2023-02-11T01:14:48;74.10;;;32.77;;
8964;SDS011;4517;49.020;12.066;2023-02-11T01:17:13;71.93;;;32.20;;
8964;SDS011;4517;49.020;12.066;2023-02-11T01:19:39;71.13;;;32.97;;
8964;SDS011;4517;49.020;12.066;2023-02-11T01:22:05;74.03;;;33.33;;
8964;SDS011;4517;49.020;12.066;2023-02-11T01:24:30;81.67;;;36.07;;
8964;SDS011;4517;49.020;12.066;2023-02-11T01:26:57;74.93;;;35.30;;
8964;SDS011;4517;49.020;12.066;2023-02-11T01:29:22;76.27;;;34.23;;
8964;SDS011;4517;49.020;12.066;2023-02-11T01:31:48;74.97;;;33.37;;
8964;SDS011;4517;49.020;12.066;2023-02-11T01:34:14;75.50;;;33.03;;
8964;SDS011;4517;49.020;12.066;2023-02-11T01:36:40;83.23;;;34.60;;
8964;SDS011;4517;49.020;12.066;2023-02-11T01:39:06;92.40;;;36.40;;
8964;SDS011;4517;49.020;12.066;2023-02-11T01:41:35;84.23;;;36.30;;
8964;SDS011;4517;49.020;12.066;2023-02-11T01:46:50;86.70;;;35.90;;
8964;SDS011;4517;49.020;12.066;2023-02-11T01:49:20;78.07;;;35.50;;
8964;SDS011;4517;49.020;12.066;2023-02-11T01:52:26;91.77;;;36.60;;
8964;SDS011;4517;49.020;12.066;2023-02-11T01:55:05;88.73;;;36.37;;
8964;SDS011;4517;49.020;12.066;2023-02-11T01:57:53;100.97;;;38.80;;
8964;SDS011;4517;49.020;12.066;2023-02-11T02:00:23;91.17;;;39.60;;
8964;SDS011;4517;49.020;12.066;2023-02-11T02:03:10;91.20;;;36.67;;
8964;SDS011;4517;49.020;12.066;2023-02-11T02:05:47;102.30;;;38.53;;
8964;SDS011;4517;49.020;12.066;2023-02-11T02:10:53;87.10;;;37.90;;
8964;SDS011;4517;49.020;12.066;2023-02-11T02:13:20;91.07;;;36.63;;
8964;SDS011;4517;49.020;12.066;2023-02-11T02:15:50;97.93;;;40.50;;
8964;SDS011;4517;49.020;12.066;2023-02-11T02:18:25;97.30;;;37.07;;
8964;SDS011;4517;49.020;12.066;2023-02-11T02:27:13;89.80;;;37.10;;
8964;SDS011;4517;49.020;12.066;2023-02-11T02:35:46;99.70;;;40.77;;
8964;SDS011;4517;49.020;12.066;2023-02-11T02:38:31;102.40;;;41.07;;
8964;SDS011;4517;49.020;12.066;2023-02-11T02:41:06;95.60;;;37.70;;
8964;SDS011;4517;49.020;12.066;2023-02-11T02:43:39;101.57;;;41.00;;
8964;SDS011;4517;49.020;12.066;2023-02-11T02:46:20;102.80;;;42.20;;
8964;SDS011;4517;49.020;12.066;2023-02-11T02:48:48;99.13;;;41.27;;
8964;SDS011;4517;49.020;12.066;2023-02-11T02:56:29;97.60;;;39.60;;
8964;SDS011;4517;49.020;12.066;2023-02-11T02:59:10;114.23;;;40.80;;
8964;SDS011;4517;49.020;12.066;2023-02-11T03:04:42;93.03;;;43.27;;
8964;SDS011;4517;49.020;12.066;2023-02-11T03:07:31;103.77;;;41.50;;
8964;SDS011;4517;49.020;12.066;2023-02-11T03:10:15;103.50;;;43.07;;
8964;SDS011;4517;49.020;12.066;2023-02-11T03:12:43;105.83;;;42.50;;
8964;SDS011;4517;49.020;12.066;2023-02-11T03:15:28;100.20;;;40.73;;
8964;SDS011;4517;49.020;12.066;2023-02-11T03:17:57;113.53;;;43.20;;
8964;SDS011;4517;49.020;12.066;2023-02-11T03:20:25;110.70;;;44.57;;
8964;SDS011;4517;49.020;12.066;2023-02-11T03:23:09;104.53;;;42.37;;
8964;SDS011;4517;49.020;12.066;2023-02-11T03:25:55;104.60;;;42.40;;
8964;SDS011;4517;49.020;12.066;2023-02-11T03:34:48;115.50;;;45.47;;
8964;SDS011;4517;49.020;12.066;2023-02-11T03:42:31;100.87;;;41.70;;
8964;SDS011;4517;49.020;12.066;2023-02-11T03:45:04;95.60;;;42.97;;
8964;SDS011;4517;49.020;12.066;2023-02-11T03:47:33;101.37;;;40.67;;
8964;SDS011;4517;49.020;12.066;2023-02-11T03:50:01;98.73;;;40.53;;
8964;SDS011;4517;49.020;12.066;2023-02-11T03:52:30;92.60;;;41.47;;
8964;SDS011;4517;49.020;12.066;2023-02-11T03:54:56;111.60;;;44.30;;
8964;SDS011;4517;49.020;12.066;2023-02-11T03:57:25;90.30;;;41.30;;
8964;SDS011;4517;49.020;12.066;2023-02-11T03:59:55;109.60;;;42.50;;
8964;SDS011;4517;49.020;12.066;2023-02-11T04:02:23;98.60;;;40.53;;
8964;SDS011;4517;49.020;12.066;2023-02-11T04:04:51;101.93;;;41.80;;
8964;SDS011;4517;49.020;12.066;2023-02-11T04:07:17;95.43;;;39.23;;
8964;SDS011;4517;49.020;12.066;2023-02-11T04:09:43;85.20;;;39.07;;
8964;SDS011;4517;49.020;12.066;2023-02-11T04:12:08;102.20;;;41.60;;
8964;SDS011;4517;49.020;12.066;2023-02-11T04:14:34;92.87;;;40.77;;
8964;SDS011;4517;49.020;12.066;2023-02-11T04:16:59;100.33;;;41.00;;
8964;SDS011;4517;49.020;12.066;2023-02-11T04:19:25;89.77;;;40.40;;
8964;SDS011;4517;49.020;12.066;2023-02-11T04:21:50;90.40;;;42.20;;
8964;SDS011;4517;49.020;12.066;2023-02-11T04:24:16;94.77;;;39.70;;
8964;SDS011;4517;49.020;12.066;2023-02-11T04:26:42;99.47;;;41.77;;
8964;SDS011;4517;49.020;12.066;2023-02-11T04:29:07;98.90;;;41.00;;
8964;SDS011;4517;49.020;12.066;2023-02-11T04:31:33;104.40;;;41.50;;
8964;SDS011;4517;49.020;12.066;2023-02-11T04:33:58;96.57;;;39.83;;
8964;SDS011;4517;49.020;12.066;2023-02-11T04:36:24;89.63;;;38.60;;
8964;SDS011;4517;49.020;12.066;2023-02-11T04:38:49;93.10;;;40.77;;
8964;SDS011;4517;49.020;12.066;2023-02-11T04:41:15;97.63;;;38.67;;
8964;SDS011;4517;49.020;12.066;2023-02-11T04:43:40;91.00;;;40.57;;
8964;SDS011;4517;49.020;12.066;2023-02-11T04:46:06;104.13;;;42.40;;
8964;SDS011;4517;49.020;12.066;2023-02-11T04:48:32;91.50;;;39.63;;
8964;SDS011;4517;49.020;12.066;2023-02-11T04:50:58;89.07;;;39.97;;
8964;SDS011;4517;49.020;12.066;2023-02-11T04:53:24;92.93;;;39.10;;
8964;SDS011;4517;49.020;12.066;2023-02-11T04:55:50;97.53;;;42.83;;
8964;SDS011;4517;49.020;12.066;2023-02-11T04:58:16;96.37;;;40.30;;
8964;SDS011;4517;49.020;12.066;2023-02-11T05:00:42;85.00;;;39.57;;
8964;SDS011;4517;49.020;12.066;2023-02-11T05:03:08;94.57;;;41.53;;
8964;SDS011;4517;49.020;12.066;2023-02-11T05:05:36;85.13;;;39.80;;
8964;SDS011;4517;49.020;12.066;2023-02-11T05:08:03;84.63;;;38.53;;
8964;SDS011;4517;49.020;12.066;2023-02-11T05:10:29;82.53;;;38.70;;
8964;SDS011;4517;49.020;12.066;2023-02-11T05:12:55;76.50;;;37.87;;
8964;SDS011;4517;49.020;12.066;2023-02-11T05:15:20;98.73;;;40.13;;
8964;SDS011;4517;49.020;12.066;2023-02-11T05:17:46;88.70;;;35.70;;
8964;SDS011;4517;49.020;12.066;2023-02-11T05:20:11;83.13;;;39.07;;
8964;SDS011;4517;49.020;12.066;2023-02-11T05:22:37;94.67;;;39.00;;
8964;SDS011;4517;49.020;12.066;2023-02-11T05:25:02;90.93;;;39.63;;
8964;SDS011;4517;49.020;12.066;2023-02-11T05:27:28;94.17;;;40.10;;
8964;SDS011;4517;49.020;12.066;2023-02-11T05:29:54;85.57;;;39.37;;
8964;SDS011;4517;49.020;12.066;2023-02-11T05:32:19;91.93;;;41.27;;
8964;SDS011;4517;49.020;12.066;2023-02-11T05:34:45;97.90;;;41.13;;
8964;SDS011;4517;49.020;12.066;2023-02-11T05:37:10;83.93;;;37.97;;
8964;SDS011;4517;49.020;12.066;2023-02-11T05:39:36;87.40;;;39.27;;
8964;SDS011;4517;49.020;12.066;2023-02-11T05:42:01;97.20;;;39.73;;
8964;SDS011;4517;49.020;12.066;2023-02-11T05:44:27;91.47;;;40.80;;
8964;SDS011;4517;49.020;12.066;2023-02-11T05:46:52;89.67;;;39.73;;
8964;SDS011;4517;49.020;12.066;2023-02-11T05:49:18;85.53;;;39.43;;
8964;SDS011;4517;49.020;12.066;2023-02-11T05:51:44;93.10;;;40.13;;
8964;SDS011;4517;49.020;12.066;2023-02-11T05:54:10;83.90;;;41.03;;
8964;SDS011;4517;49.020;12.066;2023-02-11T05:56:36;102.17;;;39.43;;
8964;SDS011;4517;49.020;12.066;2023-02-11T05:59:02;82.97;;;39.33;;
8964;SDS011;4517;49.020;12.066;2023-02-11T06:01:27;88.80;;;39.27;;
8964;SDS011;4517;49.020;12.066;2023-02-11T06:03:53;89.10;;;38.90;;
8964;SDS011;4517;49.020;12.066;2023-02-11T06:06:19;85.07;;;38.40;;
8964;SDS011;4517;49.020;12.066;2023-02-11T06:08:44;84.73;;;37.17;;
8964;SDS011;4517;49.020;12.066;2023-02-11T06:11:10;86.70;;;38.40;;
8964;SDS011;4517;49.020;12.066;2023-02-11T06:13:38;76.30;;;37.50;;
8964;SDS011;4517;49.020;12.066;2023-02-11T06:16:04;83.63;;;37.40;;
8964;SDS011;4517;49.020;12.066;2023-02-11T06:18:29;86.00;;;37.27;;
8964;SDS011;4517;49.020;12.066;2023-02-11T06:20:57;81.17;;;36.80;;
8964;SDS011;4517;49.020;12.066;2023-02-11T06:23:23;88.13;;;36.37;;
8964;SDS011;4517;49.020;12.066;2023-02-11T06:25:49;87.63;;;36.30;;
8964;SDS011;4517;49.020;12.066;2023-02-11T06:28:15;80.90;;;39.50;;
8964;SDS011;4517;49.020;12.066;2023-02-11T06:30:40;82.07;;;36.63;;
8964;SDS011;4517;49.020;12.066;2023-02-11T06:33:06;92.20;;;38.20;;
8964;SDS011;4517;49.020;12.066;2023-02-11T06:35:31;78.03;;;37.60;;
8964;SDS011;4517;49.020;12.066;2023-02-11T06:37:59;98.53;;;39.97;;
8964;SDS011;4517;49.020;12.066;2023-02-11T06:40:25;94.20;;;38.70;;
8964;SDS011;4517;49.020;12.066;2023-02-11T06:42:50;87.07;;;37.60;;
8964;SDS011;4517;49.020;12.066;2023-02-11T06:45:16;77.33;;;40.77;;
8964;SDS011;4517;49.020;12.066;2023-02-11T06:47:42;73.00;;;35.23;;
8964;SDS011;4517;49.020;12.066;2023-02-11T06:50:09;88.43;;;39.27;;
8964;SDS011;4517;49.020;12.066;2023-02-11T06:52:36;81.10;;;38.57;;
8964;SDS011;4517;49.020;12.066;2023-02-11T06:55:02;82.00;;;37.50;;
8964;SDS011;4517;49.020;12.066;2023-02-11T06:57:29;84.27;;;38.30;;
8964;SDS011;4517;49.020;12.066;2023-02-11T06:59:55;75.17;;;37.47;;
8964;SDS011;4517;49.020;12.066;2023-02-11T07:02:21;82.70;;;37.17;;
8964;SDS011;4517;49.020;12.066;2023-02-11T07:04:46;82.10;;;38.20;;
8964;SDS011;4517;49.020;12.066;2023-02-11T07:07:12;85.07;;;39.53;;
8964;SDS011;4517;49.020;12.066;2023-02-11T07:09:37;74.97;;;35.40;;
8964;SDS011;4517;49.020;12.066;2023-02-11T07:12:03;67.17;;;34.00;;
8964;SDS011;4517;49.020;12.066;2023-02-11T07:14:29;82.60;;;37.17;;
8964;SDS011;4517;49.020;12.066;2023-02-11T07:16:54;76.57;;;37.60;;
8964;SDS011;4517;49.020;12.066;2023-02-11T07:19:20;82.47;;;37.83;;
8964;SDS011;4517;49.020;12.066;2023-02-11T07:21:45;75.50;;;37.27;;
8964;SDS011;4517;49.020;12.066;2023-02-11T07:24:12;83.73;;;39.17;;
8964;SDS011;4517;49.020;12.066;2023-02-11T07:26:38;83.60;;;36.73;;
8964;SDS011;4517;49.020;12.066;2023-02-11T07:29:04;75.83;;;34.33;;
8964;SDS011;4517;49.020;12.066;2023-02-11T07:31:30;79.13;;;37.20;;
8964;SDS011;4517;49.020;12.066;2023-02-11T07:33:57;76.67;;;35.47;;
8964;SDS011;4517;49.020;12.066;2023-02-11T07:36:24;68.23;;;33.40;;
8964;SDS011;4517;49.020;12.066;2023-02-11T07:38:51;71.10;;;35.47;;
8964;SDS011;4517;49.020;12.066;2023-02-11T07:41:18;77.10;;;37.40;;
8964;SDS011;4517;49.020;12.066;2023-02-11T07:43:45;76.23;;;36.63;;
8964;SDS011;4517;49.020;12.066;2023-02-11T07:46:15;62.63;;;33.60;;
8964;SDS011;4517;49.020;12.066;2023-02-11T07:48:43;77.33;;;36.53;;
8964;SDS011;4517;49.020;12.066;2023-02-11T07:51:10;70.77;;;34.50;;
8964;SDS011;4517;49.020;12.066;2023-02-11T07:53:44;74.40;;;36.37;;
8964;SDS011;4517;49.020;12.066;2023-02-11T07:56:10;90.57;;;37.70;;
8964;SDS011;4517;49.020;12.066;2023-02-11T07:58:37;80.73;;;36.07;;
8964;SDS011;4517;49.020;12.066;2023-02-11T08:01:07;73.23;;;35.00;;
8964;SDS011;4517;49.020;12.066;2023-02-11T08:03:35;73.23;;;35.73;;
8964;SDS011;4517;49.020;12.066;2023-02-11T08:06:08;72.33;;;35.30;;
8964;SDS011;4517;49.020;12.066;2023-02-11T08:08:35;68.83;;;34.07;;
8964;SDS011;4517;49.020;12.066;2023-02-11T08:11:11;68.20;;;35.63;;
8964;SDS011;4517;49.020;12.066;2023-02-11T08:13:44;75.30;;;35.20;;
8964;SDS011;4517;49.020;12.066;2023-02-11T08:16:21;80.60;;;37.97;;
8964;SDS011;4517;49.020;12.066;2023-02-11T08:18:51;76.63;;;35.20;;
8964;SDS011;4517;49.020;12.066;2023-02-11T08:21:19;61.50;;;31.77;;
8964;SDS011;4517;49.020;12.066;2023-02-11T08:23:45;62.60;;;35.03;;
8964;SDS011;4517;49.020;12.066;2023-02-11T08:26:12;64.13;;;34.77;;
8964;SDS011;4517;49.020;12.066;2023-02-11T08:28:59;68.00;;;34.50;;
8964;SDS011;4517;49.020;12.066;2023-02-11T08:31:28;70.33;;;34.80;;
8964;SDS011;4517;49.020;12.066;2023-02-11T08:33:57;68.33;;;35.60;;
8964;SDS011;4517;49.020;12.066;2023-02-11T08:36:24;74.60;;;34.77;;
8964;SDS011;4517;49.020;12.066;2023-02-11T08:38:53;64.87;;;34.27;;
8964;SDS011;4517;49.020;12.066;2023-02-11T08:41:19;58.60;;;34.13;;
8964;SDS011;4517;49.020;12.066;2023-02-11T08:43:45;59.23;;;32.90;;
8964;SDS011;4517;49.020;12.066;2023-02-11T08:46:12;65.97;;;34.83;;
8964;SDS011;4517;49.020;12.066;2023-02-11T08:48:39;74.13;;;35.23;;
8964;SDS011;4517;49.020;12.066;2023-02-11T08:51:09;66.27;;;33.13;;
8964;SDS011;4517;49.020;12.066;2023-02-11T08:53:37;78.77;;;35.93;;
8964;SDS011;4517;49.020;12.066;2023-02-11T08:56:03;68.47;;;34.40;;
8964;SDS011;4517;49.020;12.066;2023-02-11T08:58:30;66.17;;;32.83;;
8964;SDS011;4517;49.020;12.066;2023-02-11T09:00:55;60.70;;;32.33;;
8964;SDS011;4517;49.020;12.066;2023-02-11T09:03:21;66.80;;;35.00;;
8964;SDS011;4517;49.020;12.066;2023-02-11T09:05:47;61.63;;;32.03;;
8964;SDS011;4517;49.020;12.066;2023-02-11T09:08:14;65.70;;;32.43;;
8964;SDS011;4517;49.020;12.066;2023-02-11T09:10:40;64.13;;;33.13;;
8964;SDS011;4517;49.020;12.066;2023-02-11T09:13:06;63.37;;;34.33;;
8964;SDS011;4517;49.020;12.066;2023-02-11T09:15:33;64.30;;;33.30;;
8964;SDS011;4517;49.020;12.066;2023-02-11T09:17:58;61.07;;;34.53;;
8964;SDS011;4517;49.020;12.066;2023-02-11T09:20:24;65.03;;;30.87;;
8964;SDS011;4517;49.020;12.066;2023-02-11T09:22:51;62.03;;;31.47;;
8964;SDS011;4517;49.020;12.066;2023-02-11T09:25:17;60.67;;;32.93;;
8964;SDS011;4517;49.020;12.066;2023-02-11T09:27:42;63.27;;;32.33;;
8964;SDS011;4517;49.020;12.066;2023-02-11T09:30:08;52.70;;;30.90;;
8964;SDS011;4517;49.020;12.066;2023-02-11T09:32:35;60.20;;;33.50;;
8964;SDS011;4517;49.020;12.066;2023-02-11T09:35:00;60.73;;;32.27;;
8964;SDS011;4517;49.020;12.066;2023-02-11T09:37:26;56.67;;;30.80;;
8964;SDS011;4517;49.020;12.066;2023-02-11T09:39:51;53.80;;;30.60;;
8964;SDS011;4517;49.020;12.066;2023-02-11T09:45:04;56.47;;;33.00;;
8964;SDS011;4517;49.020;12.066;2023-02-11T09:47:50;60.67;;;32.80;;
8964;SDS011;4517;49.020;12.066;2023-02-11T09:50:29;60.07;;;33.00;;
8964;SDS011;4517;49.020;12.066;2023-02-11T09:55:52;67.77;;;34.03;;
8964;SDS011;4517;49.020;12.066;2023-02-11T09:58:23;63.13;;;32.93;;
8964;SDS011;4517;49.020;12.066;2023-02-11T10:06:52;66.60;;;34.23;;
8964;SDS011;4517;49.020;12.066;2023-02-11T10:12:01;60.10;;;33.33;;
8964;SDS011;4517;49.020;12.066;2023-02-11T10:22:51;58.47;;;34.10;;
8964;SDS011;4517;49.020;12.066;2023-02-11T10:27:49;70.37;;;33.90;;
8964;SDS011;4517;49.020;12.066;2023-02-11T10:30:27;59.10;;;34.07;;
8964;SDS011;4517;49.020;12.066;2023-02-11T10:33:02;56.53;;;31.67;;
8964;SDS011;4517;49.020;12.066;2023-02-11T10:35:36;56.47;;;30.90;;
8964;SDS011;4517;49.020;12.066;2023-02-11T10:38:02;55.83;;;31.60;;
8964;SDS011;4517;49.020;12.066;2023-02-11T10:40:28;58.10;;;33.20;;
8964;SDS011;4517;49.020;12.066;2023-02-11T10:42:56;60.07;;;36.13;;
8964;SDS011;4517;49.020;12.066;2023-02-11T10:45:35;59.90;;;32.03;;
8964;SDS011;4517;49.020;12.066;2023-02-11T10:48:52;52.90;;;31.07;;
8964;SDS011;4517;49.020;12.066;2023-02-11T10:51:29;46.10;;;27.03;;
8964;SDS011;4517;49.020;12.066;2023-02-11T10:56:28;50.97;;;28.47;;
8964;SDS011;4517;49.020;12.066;2023-02-11T10:58:58;47.60;;;28.63;;
8964;SDS011;4517;49.020;12.066;2023-02-11T11:01:52;43.50;;;27.90;;
8964;SDS011;4517;49.020;12.066;2023-02-11T11:07:08;51.07;;;27.93;;
8964;SDS011;4517;49.020;12.066;2023-02-11T11:09:45;54.53;;;29.13;;
8964;SDS011;4517;49.020;12.066;2023-02-11T11:17:35;55.63;;;28.90;;
8964;SDS011;4517;49.020;12.066;2023-02-11T11:20:22;46.53;;;27.77;;
8964;SDS011;4517;49.020;12.066;2023-02-11T11:23:15;55.30;;;28.70;;
8964;SDS011;4517;49.020;12.066;2023-02-11T11:25:44;43.87;;;28.70;;
8964;SDS011;4517;49.020;12.066;2023-02-11T11:28:24;54.93;;;30.07;;
8964;SDS011;4517;49.020;12.066;2023-02-11T11:30:52;41.87;;;26.67;;
8964;SDS011;4517;49.020;12.066;2023-02-11T11:33:32;48.17;;;28.63;;
8964;SDS011;4517;49.020;12.066;2023-02-11T11:36:06;58.03;;;29.67;;
8964;SDS011;4517;49.020;12.066;2023-02-11T11:38:35;43.70;;;27.33;;
8964;SDS011;4517;49.020;12.066;2023-02-11T11:41:19;52.77;;;31.03;;
8964;SDS011;4517;49.020;12.066;2023-02-11T11:46:22;56.20;;;34.17;;
8964;SDS011;4517;49.020;12.066;2023-02-11T11:48:54;64.73;;;35.63;;
8964;SDS011;4517;49.020;12.066;2023-02-11T11:51:24;60.50;;;34.03;;
8964;SDS011;4517;49.020;12.066;2023-02-11T11:54:02;62.97;;;33.87;;
8964;SDS011;4517;49.020;12.066;2023-02-11T11:56:33;61.43;;;34.27;;
8964;SDS011;4517;49.020;12.066;2023-02-11T11:59:09;56.47;;;33.27;;
8964;SDS011;4517;49.020;12.066;2023-02-11T12:04:12;61.80;;;34.33;;
8964;SDS011;4517;49.020;12.066;2023-02-11T12:06:53;57.37;;;33.73;;
8964;SDS011;4517;49.020;12.066;2023-02-11T12:09:34;65.30;;;34.83;;
8964;SDS011;4517;49.020;12.066;2023-02-11T12:15:13;59.83;;;34.80;;
8964;SDS011;4517;49.020;12.066;2023-02-11T12:26:16;60.90;;;34.80;;
8964;SDS011;4517;49.020;12.066;2023-02-11T12:32:09;60.17;;;34.20;;
8964;SDS011;4517;49.020;12.066;2023-02-11T12:48:17;59.13;;;32.70;;
8964;SDS011;4517;49.020;12.066;2023-02-11T12:50:53;64.10;;;32.13;;
8964;SDS011;4517;49.020;12.066;2023-02-11T12:56:26;55.93;;;32.30;;
8964;SDS011;4517;49.020;12.066;2023-02-11T12:59:03;57.47;;;33.47;;
8964;SDS011;4517;49.020;12.066;2023-02-11T13:01:34;64.77;;;35.40;;
8964;SDS011;4517;49.020;12.066;2023-02-11T13:04:39;61.13;;;35.20;;
8964;SDS011;4517;49.020;12.066;2023-02-11T13:07:03;72.60;;;34.60;;
8964;SDS011;4517;49.020;12.066;2023-02-11T13:09:39;71.03;;;35.60;;
8964;SDS011;4517;49.020;12.066;2023-02-11T13:12:08;66.43;;;34.30;;
8964;SDS011;4517;49.020;12.066;2023-02-11T13:14:57;65.70;;;35.60;;
8964;SDS011;4517;49.020;12.066;2023-02-11T13:17:35;64.83;;;34.90;;
8964;SDS011;4517;49.020;12.066;2023-02-11T13:20:17;63.47;;;34.17;;
8964;SDS011;4517;49.020;12.066;2023-02-11T13:22:55;60.83;;;34.57;;
8964;SDS011;4517;49.020;12.066;2023-02-11T13:27:57;63.93;;;35.10;;
8964;SDS011;4517;49.020;12.066;2023-02-11T13:30:30;64.30;;;35.47;;
8964;SDS011;4517;49.020;12.066;2023-02-11T13:33:01;62.50;;;34.30;;
8964;SDS011;4517;49.020;12.066;2023-02-11T13:35:32;63.37;;;35.77;;
8964;SDS011;4517;49.020;12.066;2023-02-11T13:37:58;67.43;;;35.67;;
8964;SDS011;4517;49.020;12.066;2023-02-11T13:40:26;65.33;;;36.20;;
8964;SDS011;4517;49.020;12.066;2023-02-11T13:42:59;58.60;;;34.47;;
8964;SDS011;4517;49.020;12.066;2023-02-11T13:45:35;65.30;;;36.07;;
8964;SDS011;4517;49.020;12.066;2023-02-11T13:48:05;63.20;;;35.13;;
8964;SDS011;4517;49.020;12.066;2023-02-11T13:50:39;69.07;;;35.80;;
8964;SDS011;4517;49.020;12.066;2023-02-11T13:53:12;64.47;;;35.30;;
8964;SDS011;4517;49.020;12.066;2023-02-11T13:55:38;63.00;;;33.80;;
8964;SDS011;4517;49.020;12.066;2023-02-11T14:14:13;67.37;;;36.97;;
8964;SDS011;4517;49.020;12.066;2023-02-11T14:17:16;53.90;;;33.13;;
8964;SDS011;4517;49.020;12.066;2023-02-11T14:22:02;65.90;;;35.67;;
8964;SDS011;4517;49.020;12.066;2023-02-11T14:43:41;65.90;;;35.77;;
8964;SDS011;4517;49.020;12.066;2023-02-11T14:46:11;59.30;;;34.83;;
8964;SDS011;4517;49.020;12.066;2023-02-11T14:48:42;59.17;;;34.00;;
8964;SDS011;4517;49.020;12.066;2023-02-11T14:53:56;63.87;;;35.00;;
8964;SDS011;4517;49.020;12.066;2023-02-11T14:56:27;62.00;;;35.53;;
8964;SDS011;4517;49.020;12.066;2023-02-11T14:58:55;62.33;;;33.57;;
8964;SDS011;4517;49.020;12.066;2023-02-11T15:04:00;75.97;;;40.77;;
8964;SDS011;4517;49.020;12.066;2023-02-11T15:06:32;60.77;;;36.40;;
8964;SDS011;4517;49.020;12.066;2023-02-11T15:09:03;60.90;;;34.73;;
8964;SDS011;4517;49.020;12.066;2023-02-11T15:11:33;63.00;;;36.10;;
8964;SDS011;4517;49.020;12.066;2023-02-11T15:14:10;61.43;;;35.10;;
8964;SDS011;4517;49.020;12.066;2023-02-11T15:16:50;62.30;;;35.40;;
8964;SDS011;4517;49.020;12.066;2023-02-11T15:21:46;55.93;;;34.33;;
8964;SDS011;4517;49.020;12.066;2023-02-11T15:24:26;60.93;;;33.67;;
8964;SDS011;4517;49.020;12.066;2023-02-11T15:29:41;59.10;;;34.67;;
8964;SDS011;4517;49.020;12.066;2023-02-11T15:34:34;60.73;;;34.13;;
8964;SDS011;4517;49.020;12.066;2023-02-11T15:37:00;62.27;;;35.00;;
8964;SDS011;4517;49.020;12.066;2023-02-11T15:39:28;57.73;;;34.57;;
8964;SDS011;4517;49.020;12.066;2023-02-11T15:44:47;57.57;;;33.23;;
8964;SDS011;4517;49.020;12.066;2023-02-11T15:47:18;62.03;;;34.63;;
8964;SDS011;4517;49.020;12.066;2023-02-11T15:49:45;69.90;;;35.50;;
8964;SDS011;4517;49.020;12.066;2023-02-11T15:52:21;63.00;;;34.87;;
8964;SDS011;4517;49.020;12.066;2023-02-11T15:54:49;68.80;;;36.20;;
8964;SDS011;4517;49.020;12.066;2023-02-11T15:57:16;58.73;;;34.90;;
8964;SDS011;4517;49.020;12.066;2023-02-11T15:59:46;67.10;;;37.10;;
8964;SDS011;4517;49.020;12.066;2023-02-11T16:02:25;69.10;;;35.80;;
8964;SDS011;4517;49.020;12.066;2023-02-11T16:04:53;59.77;;;36.63;;
8964;SDS011;4517;49.020;12.066;2023-02-11T16:07:37;67.97;;;34.97;;
8964;SDS011;4517;49.020;12.066;2023-02-11T16:10:27;66.77;;;34.33;;
8964;SDS011;4517;49.020;12.066;2023-02-11T16:17:59;66.53;;;36.30;;
8964;SDS011;4517;49.020;12.066;2023-02-11T16:20:27;74.97;;;33.50;;
8964;SDS011;4517;49.020;12.066;2023-02-11T16:22:53;71.70;;;36.93;;
8964;SDS011;4517;49.020;12.066;2023-02-11T16:25:19;63.77;;;34.67;;
8964;SDS011;4517;49.020;12.066;2023-02-11T16:27:52;65.93;;;36.70;;
8964;SDS011;4517;49.020;12.066;2023-02-11T16:30:22;65.50;;;36.43;;
8964;SDS011;4517;49.020;12.066;2023-02-11T16:32:58;75.23;;;38.80;;
8964;SDS011;4517;49.020;12.066;2023-02-11T16:35:24;59.93;;;36.50;;
8964;SDS011;4517;49.020;12.066;2023-02-11T16:37:50;69.30;;;36.70;;
8964;SDS011;4517;49.020;12.066;2023-02-11T16:40:15;67.97;;;36.93;;
8964;SDS011;4517;49.020;12.066;2023-02-11T16:42:41;66.37;;;34.40;;
8964;SDS011;4517;49.020;12.066;2023-02-11T16:45:07;75.33;;;38.77;;
8964;SDS011;4517;49.020;12.066;2023-02-11T16:47:33;66.97;;;34.60;;
8964;SDS011;4517;49.020;12.066;2023-02-11T16:49:59;68.00;;;34.60;;
8964;SDS011;4517;49.020;12.066;2023-02-11T16:52:26;67.00;;;37.00;;
8964;SDS011;4517;49.020;12.066;2023-02-11T16:54:54;65.07;;;37.80;;
8964;SDS011;4517;49.020;12.066;2023-02-11T16:57:21;74.37;;;36.90;;
8964;SDS011;4517;49.020;12.066;2023-02-11T16:59:49;62.20;;;35.73;;
8964;SDS011;4517;49.020;12.066;2023-02-11T17:02:25;62.33;;;36.37;;
8964;SDS011;4517;49.020;12.066;2023-02-11T17:04:53;65.97;;;37.37;;
8964;SDS011;4517;49.020;12.066;2023-02-11T17:07:20;74.40;;;35.90;;
8964;SDS011;4517;49.020;12.066;2023-02-11T17:09:46;80.40;;;37.90;;
8964;SDS011;4517;49.020;12.066;2023-02-11T17:12:12;67.90;;;37.43;;
8964;SDS011;4517;49.020;12.066;2023-02-11T17:14:37;66.97;;;37.70;;
8964;SDS011;4517;49.020;12.066;2023-02-11T17:17:03;72.13;;;37.03;;
8964;SDS011;4517;49.020;12.066;2023-02-11T17:19:28;73.27;;;38.60;;
8964;SDS011;4517;49.020;12.066;2023-02-11T17:21:54;75.40;;;38.60;;
8964;SDS011;4517;49.020;12.066;2023-02-11T17:24:20;69.90;;;38.10;;
8964;SDS011;4517;49.020;12.066;2023-02-11T17:26:46;69.93;;;37.57;;
8964;SDS011;4517;49.020;12.066;2023-02-11T17:29:14;65.60;;;37.47;;
8964;SDS011;4517;49.020;12.066;2023-02-11T17:31:42;69.83;;;39.67;;
8964;SDS011;4517;49.020;12.066;2023-02-11T17:34:08;68.67;;;38.67;;
8964;SDS011;4517;49.020;12.066;2023-02-11T17:36:34;64.63;;;38.60;;
8964;SDS011;4517;49.020;12.066;2023-02-11T17:39:00;66.50;;;38.00;;